Gore Bay, Canada
Current Conditions -  °F | °C
As of 3:02 AM on Saturday 29 Nov 2014 (Local Time) from CYZE Reporting Station
Overcast Overcast  
Wind Chill: 21°   Ceiling: 2200
Heat Index: 30°   Visibility: 9mi
Dew Point: 25°   Wind: 10mph
Humidity: 80%   Direction: 180°S
Pressure: 29.99"   Gusts: NA
Location:  45.92°N, 82.47°W
Report Text: CYZE 290802Z AUTO 18009KT 9SM OVC022 M01/M04 A2999 RMK SLP166
Loading
Personal Weather Stations






























Interactive Weather Map New forecast layout! Learn more

10-Day Weather Forecast

Advertisements
Track Severe Weather on mobile